sensor_id;sensor_type;location;lat;lon;timestamp;P1;durP1;ratioP1;P2;durP2;ratioP2
9224;SDS011;4647;48.072;11.616;2023-04-24T00:00:59;2.90;;;1.80;;
9224;SDS011;4647;48.072;11.616;2023-04-24T00:03:28;1.70;;;1.60;;
9224;SDS011;4647;48.072;11.616;2023-04-24T00:05:58;1.93;;;1.77;;
9224;SDS011;4647;48.072;11.616;2023-04-24T00:08:27;1.70;;;1.60;;
9224;SDS011;4647;48.072;11.616;2023-04-24T00:10:58;2.03;;;1.60;;
9224;SDS011;4647;48.072;11.616;2023-04-24T00:13:29;2.03;;;1.60;;
9224;SDS011;4647;48.072;11.616;2023-04-24T00:15:57;3.07;;;1.57;;
9224;SDS011;4647;48.072;11.616;2023-04-24T00:18:26;1.40;;;1.30;;
9224;SDS011;4647;48.072;11.616;2023-04-24T00:20:54;2.27;;;1.40;;
9224;SDS011;4647;48.072;11.616;2023-04-24T00:23:23;2.10;;;1.53;;
9224;SDS011;4647;48.072;11.616;2023-04-24T00:25:52;2.23;;;1.60;;
9224;SDS011;4647;48.072;11.616;2023-04-24T00:28:23;1.20;;;1.10;;
9224;SDS011;4647;48.072;11.616;2023-04-24T00:30:54;2.57;;;1.30;;
9224;SDS011;4647;48.072;11.616;2023-04-24T00:33:23;1.60;;;1.33;;
9224;SDS011;4647;48.072;11.616;2023-04-24T00:35:51;2.57;;;1.27;;
9224;SDS011;4647;48.072;11.616;2023-04-24T00:38:20;1.43;;;1.20;;
9224;SDS011;4647;48.072;11.616;2023-04-24T00:40:51;1.50;;;1.30;;
9224;SDS011;4647;48.072;11.616;2023-04-24T00:43:20;1.70;;;1.30;;
9224;SDS011;4647;48.072;11.616;2023-04-24T00:45:48;1.63;;;1.30;;
9224;SDS011;4647;48.072;11.616;2023-04-24T00:48:19;1.20;;;1.10;;
9224;SDS011;4647;48.072;11.616;2023-04-24T00:50:49;3.37;;;1.23;;
9224;SDS011;4647;48.072;11.616;2023-04-24T00:53:17;1.30;;;1.00;;
9224;SDS011;4647;48.072;11.616;2023-04-24T00:55:45;1.60;;;1.20;;
9224;SDS011;4647;48.072;11.616;2023-04-24T00:58:14;1.30;;;1.20;;
9224;SDS011;4647;48.072;11.616;2023-04-24T01:00:42;1.43;;;1.33;;
9224;SDS011;4647;48.072;11.616;2023-04-24T01:03:12;1.40;;;1.10;;
9224;SDS011;4647;48.072;11.616;2023-04-24T01:05:46;1.80;;;1.10;;
9224;SDS011;4647;48.072;11.616;2023-04-24T01:08:15;2.13;;;1.30;;
9224;SDS011;4647;48.072;11.616;2023-04-24T01:10:45;2.33;;;1.20;;
9224;SDS011;4647;48.072;11.616;2023-04-24T01:13:15;1.57;;;1.20;;
9224;SDS011;4647;48.072;11.616;2023-04-24T01:15:44;2.03;;;1.20;;
9224;SDS011;4647;48.072;11.616;2023-04-24T01:18:12;1.20;;;1.10;;
9224;SDS011;4647;48.072;11.616;2023-04-24T01:20:41;1.37;;;0.93;;
9224;SDS011;4647;48.072;11.616;2023-04-24T01:23:14;1.00;;;0.90;;
9224;SDS011;4647;48.072;11.616;2023-04-24T01:25:43;2.03;;;1.10;;
9224;SDS011;4647;48.072;11.616;2023-04-24T01:28:12;2.07;;;0.93;;
9224;SDS011;4647;48.072;11.616;2023-04-24T01:30:42;1.10;;;0.90;;
9224;SDS011;4647;48.072;11.616;2023-04-24T01:33:11;0.93;;;0.93;;
9224;SDS011;4647;48.072;11.616;2023-04-24T01:35:39;1.67;;;0.90;;
9224;SDS011;4647;48.072;11.616;2023-04-24T01:38:08;1.57;;;0.90;;
9224;SDS011;4647;48.072;11.616;2023-04-24T01:40:39;1.00;;;0.90;;
9224;SDS011;4647;48.072;11.616;2023-04-24T01:43:07;1.10;;;1.00;;
9224;SDS011;4647;48.072;11.616;2023-04-24T01:45:36;1.53;;;0.70;;
9224;SDS011;4647;48.072;11.616;2023-04-24T01:48:04;0.83;;;0.70;;
9224;SDS011;4647;48.072;11.616;2023-04-24T01:50:33;0.70;;;0.70;;
9224;SDS011;4647;48.072;11.616;2023-04-24T01:53:01;2.90;;;1.07;;
9224;SDS011;4647;48.072;11.616;2023-04-24T01:55:31;1.00;;;0.90;;
9224;SDS011;4647;48.072;11.616;2023-04-24T01:58:02;0.70;;;0.70;;
9224;SDS011;4647;48.072;11.616;2023-04-24T02:00:31;1.30;;;1.00;;
9224;SDS011;4647;48.072;11.616;2023-04-24T02:02:59;1.33;;;0.80;;
9224;SDS011;4647;48.072;11.616;2023-04-24T02:05:31;1.57;;;0.87;;
9224;SDS011;4647;48.072;11.616;2023-04-24T02:07:59;1.30;;;1.00;;
9224;SDS011;4647;48.072;11.616;2023-04-24T02:10:28;1.07;;;0.93;;
9224;SDS011;4647;48.072;11.616;2023-04-24T02:12:56;2.00;;;1.03;;
9224;SDS011;4647;48.072;11.616;2023-04-24T02:15:28;0.80;;;0.80;;
9224;SDS011;4647;48.072;11.616;2023-04-24T02:17:56;0.77;;;0.77;;
9224;SDS011;4647;48.072;11.616;2023-04-24T02:20:25;0.90;;;0.80;;
9224;SDS011;4647;48.072;11.616;2023-04-24T02:22:53;2.00;;;1.00;;
9224;SDS011;4647;48.072;11.616;2023-04-24T02:25:22;1.23;;;0.90;;
9224;SDS011;4647;48.072;11.616;2023-04-24T02:27:51;1.00;;;0.90;;
9224;SDS011;4647;48.072;11.616;2023-04-24T02:30:19;1.97;;;1.00;;
9224;SDS011;4647;48.072;11.616;2023-04-24T02:32:50;0.70;;;0.70;;
9224;SDS011;4647;48.072;11.616;2023-04-24T02:35:22;2.07;;;0.97;;
9224;SDS011;4647;48.072;11.616;2023-04-24T02:37:50;1.67;;;0.90;;
9224;SDS011;4647;48.072;11.616;2023-04-24T02:40:19;0.87;;;0.80;;
9224;SDS011;4647;48.072;11.616;2023-04-24T02:42:47;1.10;;;0.80;;
9224;SDS011;4647;48.072;11.616;2023-04-24T02:45:15;1.53;;;0.70;;
9224;SDS011;4647;48.072;11.616;2023-04-24T02:47:44;0.97;;;0.90;;
9224;SDS011;4647;48.072;11.616;2023-04-24T02:50:15;0.83;;;0.70;;
9224;SDS011;4647;48.072;11.616;2023-04-24T02:52:43;1.37;;;0.83;;
9224;SDS011;4647;48.072;11.616;2023-04-24T02:55:12;0.70;;;0.70;;
9224;SDS011;4647;48.072;11.616;2023-04-24T02:57:40;1.13;;;0.90;;
9224;SDS011;4647;48.072;11.616;2023-04-24T03:00:09;1.23;;;0.93;;
9224;SDS011;4647;48.072;11.616;2023-04-24T03:02:41;2.67;;;0.90;;
9224;SDS011;4647;48.072;11.616;2023-04-24T03:05:10;2.07;;;0.97;;
9224;SDS011;4647;48.072;11.616;2023-04-24T03:07:44;0.90;;;0.73;;
9224;SDS011;4647;48.072;11.616;2023-04-24T03:10:12;1.10;;;0.80;;
9224;SDS011;4647;48.072;11.616;2023-04-24T03:12:41;1.70;;;0.90;;
9224;SDS011;4647;48.072;11.616;2023-04-24T03:15:09;1.40;;;0.90;;
9224;SDS011;4647;48.072;11.616;2023-04-24T03:17:38;1.53;;;0.90;;
9224;SDS011;4647;48.072;11.616;2023-04-24T03:20:08;1.50;;;0.80;;
9224;SDS011;4647;48.072;11.616;2023-04-24T03:22:37;2.43;;;0.70;;
9224;SDS011;4647;48.072;11.616;2023-04-24T03:25:08;1.17;;;0.93;;
9224;SDS011;4647;48.072;11.616;2023-04-24T03:27:37;0.90;;;0.77;;
9224;SDS011;4647;48.072;11.616;2023-04-24T03:30:06;1.83;;;1.00;;
9224;SDS011;4647;48.072;11.616;2023-04-24T03:32:35;0.87;;;0.87;;
9224;SDS011;4647;48.072;11.616;2023-04-24T03:35:04;2.53;;;0.80;;
9224;SDS011;4647;48.072;11.616;2023-04-24T03:37:34;0.87;;;0.87;;
9224;SDS011;4647;48.072;11.616;2023-04-24T03:40:03;1.83;;;0.90;;
9224;SDS011;4647;48.072;11.616;2023-04-24T03:42:37;1.80;;;1.10;;
9224;SDS011;4647;48.072;11.616;2023-04-24T03:45:06;1.87;;;1.00;;
9224;SDS011;4647;48.072;11.616;2023-04-24T03:47:36;2.77;;;0.90;;
9224;SDS011;4647;48.072;11.616;2023-04-24T03:50:05;1.40;;;0.97;;
9224;SDS011;4647;48.072;11.616;2023-04-24T03:52:36;2.60;;;1.10;;
9224;SDS011;4647;48.072;11.616;2023-04-24T03:55:05;1.07;;;0.93;;
9224;SDS011;4647;48.072;11.616;2023-04-24T03:57:34;1.30;;;1.00;;
9224;SDS011;4647;48.072;11.616;2023-04-24T04:00:05;1.43;;;1.03;;
9224;SDS011;4647;48.072;11.616;2023-04-24T04:02:35;1.20;;;1.10;;
9224;SDS011;4647;48.072;11.616;2023-04-24T04:05:03;2.77;;;1.20;;
9224;SDS011;4647;48.072;11.616;2023-04-24T04:07:33;1.40;;;0.97;;
9224;SDS011;4647;48.072;11.616;2023-04-24T04:10:01;1.37;;;1.10;;
9224;SDS011;4647;48.072;11.616;2023-04-24T04:12:29;2.30;;;1.20;;
9224;SDS011;4647;48.072;11.616;2023-04-24T04:14:58;2.10;;;0.90;;
9224;SDS011;4647;48.072;11.616;2023-04-24T04:17:29;3.57;;;1.00;;
9224;SDS011;4647;48.072;11.616;2023-04-24T04:19:57;1.30;;;0.87;;
9224;SDS011;4647;48.072;11.616;2023-04-24T04:22:26;0.93;;;0.80;;
9224;SDS011;4647;48.072;11.616;2023-04-24T04:24:54;1.17;;;0.93;;
9224;SDS011;4647;48.072;11.616;2023-04-24T04:27:22;1.40;;;1.10;;
9224;SDS011;4647;48.072;11.616;2023-04-24T04:29:51;1.77;;;1.27;;
9224;SDS011;4647;48.072;11.616;2023-04-24T04:32:21;1.30;;;1.00;;
9224;SDS011;4647;48.072;11.616;2023-04-24T04:34:53;1.30;;;0.90;;
9224;SDS011;4647;48.072;11.616;2023-04-24T04:37:21;2.17;;;0.93;;
9224;SDS011;4647;48.072;11.616;2023-04-24T04:39:50;1.80;;;1.00;;
9224;SDS011;4647;48.072;11.616;2023-04-24T04:42:18;1.40;;;1.13;;
9224;SDS011;4647;48.072;11.616;2023-04-24T04:44:48;1.10;;;1.00;;
9224;SDS011;4647;48.072;11.616;2023-04-24T04:47:22;2.37;;;1.00;;
9224;SDS011;4647;48.072;11.616;2023-04-24T04:49:54;1.87;;;1.10;;
9224;SDS011;4647;48.072;11.616;2023-04-24T04:52:22;1.90;;;1.00;;
9224;SDS011;4647;48.072;11.616;2023-04-24T04:54:52;2.90;;;1.37;;
9224;SDS011;4647;48.072;11.616;2023-04-24T04:57:22;4.20;;;1.87;;
9224;SDS011;4647;48.072;11.616;2023-04-24T04:59:50;13.97;;;5.13;;
9224;SDS011;4647;48.072;11.616;2023-04-24T05:02:19;12.87;;;5.20;;
9224;SDS011;4647;48.072;11.616;2023-04-24T05:04:47;8.50;;;3.47;;
9224;SDS011;4647;48.072;11.616;2023-04-24T05:07:18;2.63;;;1.10;;
9224;SDS011;4647;48.072;11.616;2023-04-24T05:09:47;2.53;;;1.57;;
9224;SDS011;4647;48.072;11.616;2023-04-24T05:12:18;1.23;;;1.10;;
9224;SDS011;4647;48.072;11.616;2023-04-24T05:14:48;2.53;;;1.00;;
9224;SDS011;4647;48.072;11.616;2023-04-24T05:17:17;3.47;;;1.00;;
9224;SDS011;4647;48.072;11.616;2023-04-24T05:19:45;1.00;;;0.83;;
9224;SDS011;4647;48.072;11.616;2023-04-24T05:22:14;1.43;;;0.83;;
9224;SDS011;4647;48.072;11.616;2023-04-24T05:24:46;1.43;;;0.80;;
9224;SDS011;4647;48.072;11.616;2023-04-24T05:27:18;1.53;;;0.90;;
9224;SDS011;4647;48.072;11.616;2023-04-24T05:29:47;2.37;;;1.00;;
9224;SDS011;4647;48.072;11.616;2023-04-24T05:32:16;1.70;;;0.97;;
9224;SDS011;4647;48.072;11.616;2023-04-24T05:34:44;1.60;;;0.90;;
9224;SDS011;4647;48.072;11.616;2023-04-24T05:37:13;1.70;;;1.00;;
9224;SDS011;4647;48.072;11.616;2023-04-24T05:39:41;1.60;;;1.03;;
9224;SDS011;4647;48.072;11.616;2023-04-24T05:42:12;3.43;;;1.00;;
9224;SDS011;4647;48.072;11.616;2023-04-24T05:44:43;1.87;;;1.10;;
9224;SDS011;4647;48.072;11.616;2023-04-24T05:47:12;3.20;;;1.00;;
9224;SDS011;4647;48.072;11.616;2023-04-24T05:49:41;4.13;;;1.03;;
9224;SDS011;4647;48.072;11.616;2023-04-24T05:52:09;1.10;;;0.80;;
9224;SDS011;4647;48.072;11.616;2023-04-24T05:54:37;1.10;;;0.70;;
9224;SDS011;4647;48.072;11.616;2023-04-24T05:57:06;0.70;;;0.70;;
9224;SDS011;4647;48.072;11.616;2023-04-24T05:59:38;0.83;;;0.80;;
9224;SDS011;4647;48.072;11.616;2023-04-24T06:02:07;3.10;;;0.87;;
9224;SDS011;4647;48.072;11.616;2023-04-24T06:04:35;0.87;;;0.70;;
9224;SDS011;4647;48.072;11.616;2023-04-24T06:07:03;0.87;;;0.80;;
9224;SDS011;4647;48.072;11.616;2023-04-24T06:09:32;0.83;;;0.60;;
9224;SDS011;4647;48.072;11.616;2023-04-24T06:12:02;0.90;;;0.87;;
9224;SDS011;4647;48.072;11.616;2023-04-24T06:14:32;0.80;;;0.80;;
9224;SDS011;4647;48.072;11.616;2023-04-24T06:17:03;0.80;;;0.70;;
9224;SDS011;4647;48.072;11.616;2023-04-24T06:19:35;0.83;;;0.57;;
9224;SDS011;4647;48.072;11.616;2023-04-24T06:22:03;0.83;;;0.80;;
9224;SDS011;4647;48.072;11.616;2023-04-24T06:24:33;0.63;;;0.63;;
9224;SDS011;4647;48.072;11.616;2023-04-24T06:27:04;0.67;;;0.50;;
9224;SDS011;4647;48.072;11.616;2023-04-24T06:29:33;0.93;;;0.63;;
9224;SDS011;4647;48.072;11.616;2023-04-24T06:32:06;2.57;;;0.60;;
9224;SDS011;4647;48.072;11.616;2023-04-24T06:34:34;0.60;;;0.60;;
9224;SDS011;4647;48.072;11.616;2023-04-24T06:37:02;0.70;;;0.70;;
9224;SDS011;4647;48.072;11.616;2023-04-24T06:39:31;0.73;;;0.70;;
9224;SDS011;4647;48.072;11.616;2023-04-24T06:42:00;0.73;;;0.70;;
9224;SDS011;4647;48.072;11.616;2023-04-24T06:44:29;0.97;;;0.60;;
9224;SDS011;4647;48.072;11.616;2023-04-24T06:47:05;0.70;;;0.67;;
9224;SDS011;4647;48.072;11.616;2023-04-24T06:49:33;1.03;;;0.60;;
9224;SDS011;4647;48.072;11.616;2023-04-24T06:52:02;2.20;;;0.60;;
9224;SDS011;4647;48.072;11.616;2023-04-24T06:54:31;1.67;;;0.70;;
9224;SDS011;4647;48.072;11.616;2023-04-24T06:57:02;1.13;;;0.60;;
9224;SDS011;4647;48.072;11.616;2023-04-24T06:59:31;0.70;;;0.60;;
9224;SDS011;4647;48.072;11.616;2023-04-24T07:01:59;1.10;;;0.90;;
9224;SDS011;4647;48.072;11.616;2023-04-24T07:04:30;0.67;;;0.57;;
9224;SDS011;4647;48.072;11.616;2023-04-24T07:06:59;1.10;;;0.70;;
9224;SDS011;4647;48.072;11.616;2023-04-24T07:09:27;0.57;;;0.57;;
9224;SDS011;4647;48.072;11.616;2023-04-24T07:11:57;0.63;;;0.60;;
9224;SDS011;4647;48.072;11.616;2023-04-24T07:14:25;2.87;;;0.60;;
9224;SDS011;4647;48.072;11.616;2023-04-24T07:16:54;0.90;;;0.60;;
9224;SDS011;4647;48.072;11.616;2023-04-24T07:19:22;1.13;;;0.80;;
9224;SDS011;4647;48.072;11.616;2023-04-24T07:21:53;0.70;;;0.60;;
9224;SDS011;4647;48.072;11.616;2023-04-24T07:24:23;0.60;;;0.60;;
9224;SDS011;4647;48.072;11.616;2023-04-24T07:26:54;1.23;;;0.47;;
9224;SDS011;4647;48.072;11.616;2023-04-24T07:29:22;1.43;;;0.50;;
9224;SDS011;4647;48.072;11.616;2023-04-24T07:31:50;1.40;;;0.63;;
9224;SDS011;4647;48.072;11.616;2023-04-24T07:34:19;2.77;;;0.63;;
9224;SDS011;4647;48.072;11.616;2023-04-24T07:36:47;0.57;;;0.57;;
9224;SDS011;4647;48.072;11.616;2023-04-24T07:39:18;1.83;;;0.60;;
9224;SDS011;4647;48.072;11.616;2023-04-24T07:41:47;2.23;;;0.50;;
9224;SDS011;4647;48.072;11.616;2023-04-24T07:44:16;0.97;;;0.70;;
9224;SDS011;4647;48.072;11.616;2023-04-24T07:46:45;1.00;;;0.63;;
9224;SDS011;4647;48.072;11.616;2023-04-24T07:49:13;0.60;;;0.50;;
9224;SDS011;4647;48.072;11.616;2023-04-24T07:51:42;1.40;;;0.67;;
9224;SDS011;4647;48.072;11.616;2023-04-24T07:54:13;0.80;;;0.63;;
9224;SDS011;4647;48.072;11.616;2023-04-24T07:56:47;0.87;;;0.83;;
9224;SDS011;4647;48.072;11.616;2023-04-24T07:59:16;1.83;;;1.07;;
9224;SDS011;4647;48.072;11.616;2023-04-24T08:01:44;2.30;;;1.20;;
9224;SDS011;4647;48.072;11.616;2023-04-24T08:04:13;4.30;;;2.63;;
9224;SDS011;4647;48.072;11.616;2023-04-24T08:06:42;4.57;;;2.53;;
9224;SDS011;4647;48.072;11.616;2023-04-24T08:09:11;3.27;;;1.47;;
9224;SDS011;4647;48.072;11.616;2023-04-24T08:11:40;4.13;;;1.07;;
9224;SDS011;4647;48.072;11.616;2023-04-24T08:14:11;0.90;;;0.70;;
9224;SDS011;4647;48.072;11.616;2023-04-24T08:16:40;0.90;;;0.80;;
9224;SDS011;4647;48.072;11.616;2023-04-24T08:19:08;0.77;;;0.70;;
9224;SDS011;4647;48.072;11.616;2023-04-24T08:21:37;3.13;;;0.77;;
9224;SDS011;4647;48.072;11.616;2023-04-24T08:24:05;1.03;;;0.70;;
9224;SDS011;4647;48.072;11.616;2023-04-24T08:26:36;2.40;;;0.63;;
9224;SDS011;4647;48.072;11.616;2023-04-24T08:29:05;0.90;;;0.77;;
9224;SDS011;4647;48.072;11.616;2023-04-24T08:31:36;0.60;;;0.60;;
9224;SDS011;4647;48.072;11.616;2023-04-24T08:34:04;0.80;;;0.70;;
9224;SDS011;4647;48.072;11.616;2023-04-24T08:36:33;0.80;;;0.77;;
9224;SDS011;4647;48.072;11.616;2023-04-24T08:39:01;0.70;;;0.70;;
9224;SDS011;4647;48.072;11.616;2023-04-24T08:41:30;0.73;;;0.70;;
9224;SDS011;4647;48.072;11.616;2023-04-24T08:44:00;2.53;;;0.80;;
9224;SDS011;4647;48.072;11.616;2023-04-24T08:46:30;0.80;;;0.80;;
9224;SDS011;4647;48.072;11.616;2023-04-24T08:49:01;1.20;;;0.90;;
9224;SDS011;4647;48.072;11.616;2023-04-24T08:51:30;1.13;;;1.07;;
9224;SDS011;4647;48.072;11.616;2023-04-24T08:53:59;2.17;;;1.20;;
9224;SDS011;4647;48.072;11.616;2023-04-24T08:56:29;2.83;;;1.10;;
9224;SDS011;4647;48.072;11.616;2023-04-24T08:58:59;1.60;;;1.10;;
9224;SDS011;4647;48.072;11.616;2023-04-24T09:01:28;1.43;;;1.20;;
9224;SDS011;4647;48.072;11.616;2023-04-24T09:04:03;1.57;;;0.97;;
9224;SDS011;4647;48.072;11.616;2023-04-24T09:06:31;1.53;;;1.10;;
9224;SDS011;4647;48.072;11.616;2023-04-24T09:09:01;1.20;;;1.10;;
9224;SDS011;4647;48.072;11.616;2023-04-24T09:11:30;1.27;;;1.00;;
9224;SDS011;4647;48.072;11.616;2023-04-24T09:13:59;2.77;;;1.23;;
9224;SDS011;4647;48.072;11.616;2023-04-24T09:16:28;2.03;;;1.10;;
9224;SDS011;4647;48.072;11.616;2023-04-24T09:18:58;1.47;;;1.00;;
9224;SDS011;4647;48.072;11.616;2023-04-24T09:21:33;1.10;;;1.00;;
9224;SDS011;4647;48.072;11.616;2023-04-24T09:24:03;1.13;;;1.00;;
9224;SDS011;4647;48.072;11.616;2023-04-24T09:26:35;2.77;;;1.23;;
9224;SDS011;4647;48.072;11.616;2023-04-24T09:29:04;2.33;;;1.27;;
9224;SDS011;4647;48.072;11.616;2023-04-24T09:31:33;5.10;;;1.50;;
9224;SDS011;4647;48.072;11.616;2023-04-24T09:34:02;1.47;;;1.20;;
9224;SDS011;4647;48.072;11.616;2023-04-24T09:36:35;1.37;;;0.90;;
9224;SDS011;4647;48.072;11.616;2023-04-24T09:39:09;1.63;;;1.20;;
9224;SDS011;4647;48.072;11.616;2023-04-24T09:41:45;4.33;;;1.03;;
9224;SDS011;4647;48.072;11.616;2023-04-24T09:44:16;2.40;;;1.10;;
9224;SDS011;4647;48.072;11.616;2023-04-24T09:46:49;2.00;;;1.20;;
9224;SDS011;4647;48.072;11.616;2023-04-24T09:49:22;2.23;;;1.17;;
9224;SDS011;4647;48.072;11.616;2023-04-24T09:51:54;2.40;;;1.20;;
9224;SDS011;4647;48.072;11.616;2023-04-24T09:54:31;1.83;;;1.27;;
9224;SDS011;4647;48.072;11.616;2023-04-24T09:57:01;1.37;;;1.23;;
9224;SDS011;4647;48.072;11.616;2023-04-24T09:59:30;1.37;;;1.10;;
9224;SDS011;4647;48.072;11.616;2023-04-24T10:01:59;4.47;;;1.20;;
9224;SDS011;4647;48.072;11.616;2023-04-24T10:04:28;3.40;;;1.30;;
9224;SDS011;4647;48.072;11.616;2023-04-24T10:06:59;1.30;;;1.00;;
9224;SDS011;4647;48.072;11.616;2023-04-24T10:09:34;2.33;;;1.17;;
9224;SDS011;4647;48.072;11.616;2023-04-24T10:12:02;1.87;;;1.63;;
9224;SDS011;4647;48.072;11.616;2023-04-24T10:14:33;2.10;;;1.67;;
9224;SDS011;4647;48.072;11.616;2023-04-24T10:17:01;2.37;;;1.50;;
9224;SDS011;4647;48.072;11.616;2023-04-24T10:19:31;3.27;;;1.20;;
9224;SDS011;4647;48.072;11.616;2023-04-24T10:22:04;2.17;;;1.50;;
9224;SDS011;4647;48.072;11.616;2023-04-24T10:24:33;2.30;;;1.30;;
9224;SDS011;4647;48.072;11.616;2023-04-24T10:27:03;2.77;;;1.37;;
9224;SDS011;4647;48.072;11.616;2023-04-24T10:29:32;1.67;;;1.20;;
9224;SDS011;4647;48.072;11.616;2023-04-24T10:32:03;2.43;;;1.50;;
9224;SDS011;4647;48.072;11.616;2023-04-24T10:34:36;3.57;;;1.40;;
9224;SDS011;4647;48.072;11.616;2023-04-24T10:37:07;1.77;;;1.47;;
9224;SDS011;4647;48.072;11.616;2023-04-24T10:39:36;2.60;;;1.27;;
9224;SDS011;4647;48.072;11.616;2023-04-24T10:42:13;1.70;;;1.27;;
9224;SDS011;4647;48.072;11.616;2023-04-24T10:44:43;3.13;;;1.40;;
9224;SDS011;4647;48.072;11.616;2023-04-24T10:47:15;1.53;;;1.20;;
9224;SDS011;4647;48.072;11.616;2023-04-24T10:49:44;1.60;;;1.37;;
9224;SDS011;4647;48.072;11.616;2023-04-24T10:52:15;1.60;;;1.27;;
9224;SDS011;4647;48.072;11.616;2023-04-24T10:54:44;2.40;;;1.50;;
9224;SDS011;4647;48.072;11.616;2023-04-24T10:57:29;3.10;;;1.40;;
9224;SDS011;4647;48.072;11.616;2023-04-24T11:00:15;2.13;;;1.20;;
9224;SDS011;4647;48.072;11.616;2023-04-24T11:02:47;0.90;;;0.90;;
9224;SDS011;4647;48.072;11.616;2023-04-24T11:05:18;0.93;;;0.87;;
9224;SDS011;4647;48.072;11.616;2023-04-24T11:08:12;0.80;;;0.80;;
9224;SDS011;4647;48.072;11.616;2023-04-24T11:10:45;1.13;;;0.90;;
9224;SDS011;4647;48.072;11.616;2023-04-24T11:13:14;0.70;;;0.70;;
9224;SDS011;4647;48.072;11.616;2023-04-24T11:15:44;1.37;;;0.80;;
9224;SDS011;4647;48.072;11.616;2023-04-24T11:18:13;2.33;;;0.90;;
9224;SDS011;4647;48.072;11.616;2023-04-24T11:20:43;1.73;;;1.03;;
9224;SDS011;4647;48.072;11.616;2023-04-24T11:23:15;3.20;;;1.30;;
9224;SDS011;4647;48.072;11.616;2023-04-24T11:25:43;0.90;;;0.80;;
9224;SDS011;4647;48.072;11.616;2023-04-24T11:28:14;4.17;;;1.77;;
9224;SDS011;4647;48.072;11.616;2023-04-24T11:30:44;1.00;;;1.00;;
9224;SDS011;4647;48.072;11.616;2023-04-24T11:33:12;3.07;;;1.80;;
9224;SDS011;4647;48.072;11.616;2023-04-24T11:35:48;4.03;;;1.40;;
9224;SDS011;4647;48.072;11.616;2023-04-24T11:38:21;1.27;;;1.17;;
9224;SDS011;4647;48.072;11.616;2023-04-24T11:40:50;2.90;;;1.27;;
9224;SDS011;4647;48.072;11.616;2023-04-24T11:43:19;1.30;;;1.20;;
9224;SDS011;4647;48.072;11.616;2023-04-24T11:45:49;1.57;;;1.30;;
9224;SDS011;4647;48.072;11.616;2023-04-24T11:48:18;1.90;;;1.20;;
9224;SDS011;4647;48.072;11.616;2023-04-24T11:50:47;2.00;;;1.20;;
9224;SDS011;4647;48.072;11.616;2023-04-24T11:53:16;1.47;;;1.37;;
9224;SDS011;4647;48.072;11.616;2023-04-24T11:55:49;1.90;;;1.30;;
9224;SDS011;4647;48.072;11.616;2023-04-24T11:58:20;1.63;;;1.30;;
9224;SDS011;4647;48.072;11.616;2023-04-24T12:00:55;2.23;;;1.50;;
9224;SDS011;4647;48.072;11.616;2023-04-24T12:03:26;2.47;;;1.40;;
9224;SDS011;4647;48.072;11.616;2023-04-24T12:06:04;2.40;;;1.40;;
9224;SDS011;4647;48.072;11.616;2023-04-24T12:08:34;1.67;;;1.33;;
9224;SDS011;4647;48.072;11.616;2023-04-24T12:11:05;2.53;;;1.50;;
9224;SDS011;4647;48.072;11.616;2023-04-24T12:13:35;1.40;;;1.30;;
9224;SDS011;4647;48.072;11.616;2023-04-24T12:16:06;2.23;;;1.40;;
9224;SDS011;4647;48.072;11.616;2023-04-24T12:18:34;2.27;;;1.40;;
9224;SDS011;4647;48.072;11.616;2023-04-24T12:21:14;4.37;;;2.07;;
9224;SDS011;4647;48.072;11.616;2023-04-24T12:23:43;5.90;;;2.13;;
9224;SDS011;4647;48.072;11.616;2023-04-24T12:26:15;11.50;;;4.87;;
9224;SDS011;4647;48.072;11.616;2023-04-24T12:28:46;11.83;;;4.73;;
9224;SDS011;4647;48.072;11.616;2023-04-24T12:31:16;6.03;;;2.40;;
9224;SDS011;4647;48.072;11.616;2023-04-24T12:33:45;4.40;;;1.80;;
9224;SDS011;4647;48.072;11.616;2023-04-24T12:36:13;2.13;;;1.60;;
9224;SDS011;4647;48.072;11.616;2023-04-24T12:38:43;3.70;;;2.00;;
9224;SDS011;4647;48.072;11.616;2023-04-24T12:41:14;3.13;;;1.30;;
9224;SDS011;4647;48.072;11.616;2023-04-24T12:43:50;2.33;;;1.47;;
9224;SDS011;4647;48.072;11.616;2023-04-24T12:46:21;3.80;;;1.40;;
9224;SDS011;4647;48.072;11.616;2023-04-24T12:48:49;1.97;;;1.40;;
9224;SDS011;4647;48.072;11.616;2023-04-24T12:51:18;2.53;;;1.60;;
9224;SDS011;4647;48.072;11.616;2023-04-24T12:53:46;2.70;;;1.90;;
9224;SDS011;4647;48.072;11.616;2023-04-24T12:56:17;4.17;;;1.77;;
9224;SDS011;4647;48.072;11.616;2023-04-24T12:58:46;4.33;;;1.73;;
9224;SDS011;4647;48.072;11.616;2023-04-24T13:01:14;2.00;;;1.80;;
9224;SDS011;4647;48.072;11.616;2023-04-24T13:03:43;3.03;;;1.80;;
9224;SDS011;4647;48.072;11.616;2023-04-24T13:06:11;3.30;;;2.20;;
9224;SDS011;4647;48.072;11.616;2023-04-24T13:08:39;2.10;;;1.60;;
9224;SDS011;4647;48.072;11.616;2023-04-24T13:11:10;2.77;;;1.90;;
9224;SDS011;4647;48.072;11.616;2023-04-24T13:13:41;3.53;;;1.80;;
9224;SDS011;4647;48.072;11.616;2023-04-24T13:16:10;3.47;;;1.70;;
9224;SDS011;4647;48.072;11.616;2023-04-24T13:18:38;2.30;;;1.70;;
9224;SDS011;4647;48.072;11.616;2023-04-24T13:21:07;2.47;;;1.60;;
9224;SDS011;4647;48.072;11.616;2023-04-24T13:23:35;2.20;;;1.70;;
9224;SDS011;4647;48.072;11.616;2023-04-24T13:26:04;2.67;;;1.50;;
9224;SDS011;4647;48.072;11.616;2023-04-24T13:28:32;2.30;;;1.57;;
9224;SDS011;4647;48.072;11.616;2023-04-24T13:31:03;3.53;;;1.87;;
9224;SDS011;4647;48.072;11.616;2023-04-24T13:33:32;2.33;;;1.37;;
9224;SDS011;4647;48.072;11.616;2023-04-24T13:36:00;3.70;;;1.83;;
9224;SDS011;4647;48.072;11.616;2023-04-24T13:38:31;4.43;;;2.03;;
9224;SDS011;4647;48.072;11.616;2023-04-24T13:41:00;2.13;;;1.87;;
9224;SDS011;4647;48.072;11.616;2023-04-24T13:43:28;4.80;;;2.23;;
9224;SDS011;4647;48.072;11.616;2023-04-24T13:45:57;2.73;;;1.90;;
9224;SDS011;4647;48.072;11.616;2023-04-24T13:48:31;3.60;;;1.87;;
9224;SDS011;4647;48.072;11.616;2023-04-24T13:50:59;2.07;;;1.57;;
9224;SDS011;4647;48.072;11.616;2023-04-24T13:53:28;3.70;;;1.80;;
9224;SDS011;4647;48.072;11.616;2023-04-24T13:55:57;2.30;;;1.70;;
9224;SDS011;4647;48.072;11.616;2023-04-24T13:58:25;2.30;;;1.77;;
9224;SDS011;4647;48.072;11.616;2023-04-24T14:00:54;2.77;;;1.67;;
9224;SDS011;4647;48.072;11.616;2023-04-24T14:03:23;8.30;;;2.00;;
9224;SDS011;4647;48.072;11.616;2023-04-24T14:05:54;4.87;;;1.83;;
9224;SDS011;4647;48.072;11.616;2023-04-24T14:08:23;3.17;;;1.90;;
9224;SDS011;4647;48.072;11.616;2023-04-24T14:10:54;3.70;;;1.90;;
9224;SDS011;4647;48.072;11.616;2023-04-24T14:13:23;3.10;;;2.13;;
9224;SDS011;4647;48.072;11.616;2023-04-24T14:15:52;3.33;;;1.80;;
9224;SDS011;4647;48.072;11.616;2023-04-24T14:18:21;2.83;;;1.70;;
9224;SDS011;4647;48.072;11.616;2023-04-24T14:20:49;2.57;;;1.57;;
9224;SDS011;4647;48.072;11.616;2023-04-24T14:23:21;3.33;;;1.70;;
9224;SDS011;4647;48.072;11.616;2023-04-24T14:25:49;3.87;;;1.80;;
9224;SDS011;4647;48.072;11.616;2023-04-24T14:28:18;2.60;;;1.63;;
9224;SDS011;4647;48.072;11.616;2023-04-24T14:30:47;2.67;;;1.77;;
9224;SDS011;4647;48.072;11.616;2023-04-24T14:33:15;2.53;;;1.60;;
9224;SDS011;4647;48.072;11.616;2023-04-24T14:35:45;2.23;;;1.60;;
9224;SDS011;4647;48.072;11.616;2023-04-24T14:38:14;3.67;;;1.60;;
9224;SDS011;4647;48.072;11.616;2023-04-24T14:40:45;2.27;;;1.57;;
9224;SDS011;4647;48.072;11.616;2023-04-24T14:43:13;2.57;;;1.60;;
9224;SDS011;4647;48.072;11.616;2023-04-24T14:45:44;2.00;;;1.40;;
9224;SDS011;4647;48.072;11.616;2023-04-24T14:48:12;4.67;;;1.80;;
9224;SDS011;4647;48.072;11.616;2023-04-24T14:50:41;2.23;;;1.57;;
9224;SDS011;4647;48.072;11.616;2023-04-24T14:53:10;4.50;;;1.80;;
9224;SDS011;4647;48.072;11.616;2023-04-24T14:55:38;5.07;;;1.63;;
9224;SDS011;4647;48.072;11.616;2023-04-24T14:58:09;2.80;;;1.93;;
9224;SDS011;4647;48.072;11.616;2023-04-24T15:00:38;2.67;;;1.70;;
9224;SDS011;4647;48.072;11.616;2023-04-24T15:03:06;2.97;;;1.90;;
9224;SDS011;4647;48.072;11.616;2023-04-24T15:05:35;5.87;;;1.70;;
9224;SDS011;4647;48.072;11.616;2023-04-24T15:08:03;2.77;;;1.73;;
9224;SDS011;4647;48.072;11.616;2023-04-24T15:10:32;2.70;;;1.60;;
9224;SDS011;4647;48.072;11.616;2023-04-24T15:13:01;2.97;;;1.50;;
9224;SDS011;4647;48.072;11.616;2023-04-24T15:15:32;3.37;;;1.70;;